Time;durP1;ratioP1;P1;durP2;ratioP2;P2;SDS_P1;SDS_P2;PMS_P1;PMS_P2;Temp;Humidity;BMP_temperature;BMP_pressure;BME280_temperature;BME280_humidity;BME280_pressure;Samples;Min_cycle;Max_cycle;Signal;HPM_P1;HPM_P2
2021/03/11 00:01:14;;;;;;;13.52;6.35;;;;;;;-142.13;100.00;58370.81;4995467;28;20190;-73
2021/03/11 00:03:41;;;;;;;14.95;7.50;;;;;;;-142.13;100.00;58370.81;4997300;28;20319;-75
2021/03/11 00:06:08;;;;;;;20.10;9.55;;;;;;;-142.13;100.00;58370.81;4984040;28;20583;-73
2021/03/11 00:08:35;;;;;;;17.33;6.50;;;;;;;-142.13;100.00;58370.81;4985747;28;20313;-73
2021/03/11 00:11:03;;;;;;;14.68;6.78;;;;;;;-142.13;100.00;58370.81;4990975;28;20190;-73
2021/03/11 00:13:30;;;;;;;11.90;6.00;;;;;;;-142.13;100.00;58370.81;4993614;28;20610;-72
2021/03/11 00:15:58;;;;;;;15.90;8.32;;;;;;;-142.13;100.00;58370.81;4988910;28;20184;-74
2021/03/11 00:18:25;;;;;;;16.08;7.95;;;;;;;-142.13;100.00;58370.81;4984375;28;20213;-73
2021/03/11 00:20:59;;;;;;;14.20;6.53;;;;;;;-142.13;100.00;58370.81;4996441;28;20224;-71
2021/03/11 00:23:34;;;;;;;14.30;7.43;;;;;;;-142.13;100.00;58370.81;4994474;28;20668;-74
2021/03/11 00:26:01;;;;;;;17.10;7.70;;;;;;;-142.13;100.00;58370.81;4995027;28;20507;-73
2021/03/11 00:28:28;;;;;;;15.77;7.60;;;;;;;-142.13;100.00;58370.81;4985692;28;20229;-73
2021/03/11 00:30:55;;;;;;;18.98;7.20;;;;;;;-142.13;100.00;58370.81;4984011;28;20248;-72
2021/03/11 00:33:23;;;;;;;21.23;8.02;;;;;;;-142.13;100.00;58370.81;4997515;28;20596;-72
2021/03/11 00:35:50;;;;;;;12.13;6.43;;;;;;;-142.13;100.00;58370.81;4978984;28;20189;-73
2021/03/11 00:38:17;;;;;;;14.52;6.82;;;;;;;-142.13;100.00;58370.81;4995532;28;20617;-73
2021/03/11 00:40:44;;;;;;;15.18;7.97;;;;;;;-142.13;100.00;58370.81;4994269;28;20239;-73
2021/03/11 00:43:14;;;;;;;14.88;7.00;;;;;;;-142.13;100.00;58370.81;4993896;28;20213;-73
2021/03/11 00:45:41;;;;;;;14.07;5.72;;;;;;;-142.13;100.00;58370.81;4995749;28;20578;-73
2021/03/11 00:48:09;;;;;;;15.48;6.38;;;;;;;-142.13;100.00;58370.81;4978924;28;20214;-72
2021/03/11 00:50:37;;;;;;;15.85;8.13;;;;;;;-142.13;100.00;58370.81;4984062;28;20292;-72
2021/03/11 00:53:05;;;;;;;15.30;6.13;;;;;;;-142.13;100.00;58370.81;4983988;28;20221;-73
2021/03/11 00:55:32;;;;;;;11.73;6.13;;;;;;;-142.13;100.00;58370.81;4978169;28;20710;-72
2021/03/11 00:57:59;;;;;;;12.10;5.95;;;;;;;-142.13;100.00;58370.81;4991885;28;20723;-72
2021/03/11 01:00:26;;;;;;;13.65;5.90;;;;;;;-142.13;100.00;58370.81;4984643;28;20197;-72
2021/03/11 01:02:53;;;;;;;13.07;5.82;;;;;;;-142.13;100.00;58370.81;4971218;28;20587;-71
2021/03/11 01:05:22;;;;;;;13.93;6.00;;;;;;;-142.13;100.00;58370.81;4994323;28;20203;-73
2021/03/11 01:07:50;;;;;;;11.15;5.47;;;;;;;-142.13;100.00;58370.81;4985252;28;20684;-72
2021/03/11 01:10:17;;;;;;;17.38;6.50;;;;;;;-142.13;100.00;58370.81;4967804;28;20264;-72
2021/03/11 01:12:44;;;;;;;11.48;5.78;;;;;;;-142.13;100.00;58370.81;4980545;28;20217;-71
2021/03/11 01:15:12;;;;;;;12.90;6.00;;;;;;;-142.13;100.00;58370.81;4986776;28;20178;-71
2021/03/11 01:17:39;;;;;;;16.95;6.30;;;;;;;-142.13;100.00;58370.81;4987248;28;20660;-72
2021/03/11 01:20:10;;;;;;;13.48;5.75;;;;;;;-142.13;100.00;58370.81;4985826;28;20836;-71
2021/03/11 01:22:37;;;;;;;10.20;5.95;;;;;;;-142.13;100.00;58370.81;4979430;28;20232;-69
2021/03/11 01:25:07;;;;;;;13.70;6.05;;;;;;;-142.13;100.00;58370.81;4984891;28;20594;-71
2021/03/11 01:27:34;;;;;;;9.80;5.22;;;;;;;-142.13;100.00;58370.81;4978897;28;20214;-71
2021/03/11 01:30:02;;;;;;;9.95;4.78;;;;;;;-142.13;100.00;58370.81;4983084;28;20538;-70
2021/03/11 01:32:29;;;;;;;9.60;4.50;;;;;;;-142.13;100.00;58370.81;4977686;28;20248;-71
2021/03/11 01:34:56;;;;;;;6.80;3.47;;;;;;;-142.13;100.00;58370.81;4981408;28;20694;-71
2021/03/11 01:37:23;;;;;;;7.45;3.65;;;;;;;-142.13;100.00;58370.81;4978195;28;20217;-71
2021/03/11 01:39:51;;;;;;;5.40;2.30;;;;;;;-142.13;100.00;58370.81;4980640;28;20233;-70
2021/03/11 01:42:19;;;;;;;5.65;2.63;;;;;;;-142.13;100.00;58370.81;4988069;28;20335;-71
2021/03/11 01:44:45;;;;;;;11.80;3.42;;;;;;;-142.13;100.00;58370.81;4980390;28;20366;-70
2021/03/11 01:47:20;;;;;;;5.80;2.92;;;;;;;-142.13;100.00;58370.81;4997658;28;20253;-71
2021/03/11 01:49:47;;;;;;;5.20;2.63;;;;;;;-142.13;100.00;58370.81;4983073;28;20664;-70
2021/03/11 01:52:15;;;;;;;5.45;2.60;;;;;;;-142.13;100.00;58370.81;4981764;28;20687;-70
2021/03/11 01:54:42;;;;;;;5.15;2.50;;;;;;;-142.13;100.00;58370.81;4989008;28;20259;-70
2021/03/11 01:57:09;;;;;;;5.93;2.50;;;;;;;-142.13;100.00;58370.81;4982023;28;20931;-71
2021/03/11 01:59:38;;;;;;;4.55;2.13;;;;;;;-142.13;100.00;58370.81;4986527;28;20193;-71
2021/03/11 02:02:05;;;;;;;5.78;3.17;;;;;;;-142.13;100.00;58370.81;4964849;28;20244;-70
2021/03/11 02:04:32;;;;;;;5.53;3.20;;;;;;;-142.13;100.00;58370.81;4977797;28;20336;-71
2021/03/11 02:06:59;;;;;;;4.78;2.80;;;;;;;-142.13;100.00;58370.81;4990218;28;20217;-71
2021/03/11 02:09:26;;;;;;;6.93;3.20;;;;;;;-142.13;100.00;58370.81;4983297;28;20654;-70
2021/03/11 02:12:02;;;;;;;7.57;3.72;;;;;;;-142.13;100.00;58370.81;4966974;28;20762;-70
2021/03/11 02:14:38;;;;;;;5.50;2.90;;;;;;;-142.13;100.00;58370.81;4988979;28;20238;-70
2021/03/11 02:17:06;;;;;;;4.93;2.92;;;;;;;-142.13;100.00;58370.81;4989230;28;20656;-70
2021/03/11 02:20:04;;;;;;;6.80;2.90;;;;;;;-142.13;100.00;58370.81;4993322;28;20288;-73
2021/03/11 02:22:45;;;;;;;6.95;3.20;;;;;;;-142.13;100.00;58370.81;4983459;28;20221;-71
2021/03/11 02:25:18;;;;;;;6.82;3.45;;;;;;;-142.13;100.00;58370.81;4984471;28;20622;-71
2021/03/11 02:28:05;;;;;;;5.40;2.50;;;;;;;-142.13;100.00;58370.81;4985954;28;20221;-71
2021/03/11 02:30:34;;;;;;;8.65;3.55;;;;;;;-142.13;100.00;58370.81;4977926;28;20694;-71
2021/03/11 02:33:03;;;;;;;7.18;3.72;;;;;;;-142.13;100.00;58370.81;4991580;28;20225;-70
2021/03/11 02:35:32;;;;;;;7.72;3.17;;;;;;;-142.13;100.00;58370.81;4991402;28;20887;-71
2021/03/11 02:38:00;;;;;;;6.15;3.33;;;;;;;-142.13;100.00;58370.81;4991856;28;20936;-71
2021/03/11 02:40:30;;;;;;;10.50;3.55;;;;;;;-142.13;100.00;58370.81;4992869;28;20640;-71
2021/03/11 02:42:59;;;;;;;6.47;2.95;;;;;;;-142.13;100.00;58370.81;4980136;28;20665;-71
2021/03/11 02:45:28;;;;;;;5.57;3.42;;;;;;;-142.13;100.00;58370.81;4962334;28;20216;-71
2021/03/11 02:48:00;;;;;;;6.18;3.08;;;;;;;-142.13;100.00;58370.81;4989698;28;20864;-70
2021/03/11 02:50:29;;;;;;;8.85;3.67;;;;;;;-142.13;100.00;58370.81;4975698;28;20822;-72
2021/03/11 02:52:56;;;;;;;5.57;3.08;;;;;;;-142.13;100.00;58370.81;4969354;28;20232;-72
2021/03/11 02:55:30;;;;;;;6.10;3.22;;;;;;;-142.13;100.00;58370.81;4978182;28;20685;-71
2021/03/11 02:57:58;;;;;;;6.63;3.30;;;;;;;-142.13;100.00;58370.81;4980695;28;20875;-71
2021/03/11 03:00:25;;;;;;;8.48;3.42;;;;;;;-142.13;100.00;58370.81;4963458;28;20617;-70
2021/03/11 03:02:54;;;;;;;5.63;3.15;;;;;;;-142.13;100.00;58370.81;4983681;28;20232;-72
2021/03/11 03:05:25;;;;;;;8.70;3.70;;;;;;;-142.13;100.00;58370.81;4984019;28;20209;-72
2021/03/11 03:07:53;;;;;;;6.90;3.72;;;;;;;-142.13;100.00;58370.81;4984449;28;20610;-70
2021/03/11 03:10:23;;;;;;;7.50;3.30;;;;;;;-142.13;100.00;58370.81;4984079;28;20731;-71
2021/03/11 03:12:51;;;;;;;7.50;3.85;;;;;;;-142.13;100.00;58370.81;4989368;28;20667;-70
2021/03/11 03:15:20;;;;;;;7.03;3.45;;;;;;;-142.13;100.00;58370.81;4983697;28;20669;-70
2021/03/11 03:17:48;;;;;;;5.63;3.30;;;;;;;-142.13;100.00;58370.81;4990525;28;20585;-71
2021/03/11 03:20:17;;;;;;;6.80;4.13;;;;;;;-142.13;100.00;58370.81;4986523;28;20423;-71
2021/03/11 03:22:45;;;;;;;7.35;4.07;;;;;;;-142.13;100.00;58370.81;4978451;28;20228;-71
2021/03/11 03:25:15;;;;;;;9.95;4.50;;;;;;;-142.13;100.00;58370.81;4991958;28;20267;-71
2021/03/11 03:27:42;;;;;;;7.57;4.10;;;;;;;-142.13;100.00;58370.81;4986180;28;20225;-71
2021/03/11 03:30:16;;;;;;;9.45;4.32;;;;;;;-142.13;100.00;58370.81;4978159;28;20614;-72
2021/03/11 03:32:44;;;;;;;11.15;4.43;;;;;;;-142.13;100.00;58370.81;4975511;28;20695;-71
2021/03/11 03:35:14;;;;;;;7.25;3.95;;;;;;;-142.13;100.00;58370.81;4977601;28;20616;-71
2021/03/11 03:37:41;;;;;;;7.28;4.30;;;;;;;-142.13;100.00;58370.81;4981899;28;20552;-72
2021/03/11 03:40:13;;;;;;;9.07;4.10;;;;;;;-142.13;100.00;58370.81;4985521;28;20202;-70
2021/03/11 03:42:43;;;;;;;12.32;4.80;;;;;;;-142.13;100.00;58370.81;4986331;28;20222;-71
2021/03/11 03:45:14;;;;;;;7.00;3.53;;;;;;;-142.13;100.00;58370.81;4968689;28;20210;-72
2021/03/11 03:47:44;;;;;;;8.43;3.85;;;;;;;-142.13;100.00;58370.81;4981250;28;20224;-72
2021/03/11 03:50:13;;;;;;;8.65;4.30;;;;;;;-142.13;100.00;58370.81;4973134;28;20781;-71
2021/03/11 03:52:41;;;;;;;12.65;4.10;;;;;;;-142.13;100.00;58370.81;4981859;28;20225;-71
2021/03/11 03:55:11;;;;;;;5.78;3.00;;;;;;;-142.13;100.00;58370.81;4976271;28;20247;-71
2021/03/11 03:57:45;;;;;;;5.13;3.10;;;;;;;-142.13;100.00;58370.81;4995116;28;20220;-71
2021/03/11 04:00:14;;;;;;;7.50;3.45;;;;;;;-142.13;100.00;58370.81;4981240;28;20190;-71
2021/03/11 04:02:42;;;;;;;3.45;2.15;;;;;;;-142.13;100.00;58370.81;4978195;28;20533;-70
2021/03/11 04:05:10;;;;;;;8.60;3.70;;;;;;;-142.13;100.00;58370.81;4970291;28;20206;-71
2021/03/11 04:07:39;;;;;;;7.85;3.38;;;;;;;-142.13;100.00;58370.81;4971499;28;20460;-71
2021/03/11 04:10:08;;;;;;;6.88;3.88;;;;;;;-142.13;100.00;58370.81;4969735;28;20606;-71
2021/03/11 04:12:36;;;;;;;7.75;2.88;;;;;;;-142.13;100.00;58370.81;4963058;28;20813;-71
2021/03/11 04:15:06;;;;;;;9.10;2.93;;;;;;;-142.13;100.00;58370.81;4969741;28;20483;-71
2021/03/11 04:17:34;;;;;;;10.83;3.60;;;;;;;-142.13;100.00;58370.81;4973054;28;20502;-72
2021/03/11 04:20:04;;;;;;;11.43;3.75;;;;;;;-142.13;100.00;58370.81;4958606;28;21170;-71
2021/03/11 04:22:32;;;;;;;6.10;2.90;;;;;;;-142.13;100.00;58370.81;4960145;28;20218;-72
2021/03/11 04:25:00;;;;;;;12.27;3.73;;;;;;;-142.13;100.00;58370.81;4960162;28;20912;-72
2021/03/11 04:27:28;;;;;;;9.95;3.35;;;;;;;-142.13;100.00;58370.81;4961205;28;20933;-73
2021/03/11 04:29:57;;;;;;;19.13;4.07;;;;;;;-142.13;100.00;58370.81;4964344;28;20201;-70
2021/03/11 04:32:25;;;;;;;3.63;2.70;;;;;;;-142.13;100.00;58370.81;4957934;28;20701;-69
2021/03/11 04:34:52;;;;;;;5.37;2.60;;;;;;;-142.13;100.00;58370.81;4961872;28;20517;-70
2021/03/11 04:37:19;;;;;;;6.50;2.78;;;;;;;-142.13;100.00;58370.81;4974751;28;21018;-70
2021/03/11 04:39:46;;;;;;;6.40;2.85;;;;;;;-142.13;100.00;58370.81;4968814;28;20201;-70
2021/03/11 04:42:14;;;;;;;6.25;2.88;;;;;;;-142.13;100.00;58370.81;4972631;28;20668;-71
2021/03/11 04:44:42;;;;;;;6.15;3.70;;;;;;;-142.13;100.00;58370.81;4951080;28;20225;-71
2021/03/11 04:47:11;;;;;;;6.00;2.50;;;;;;;-142.13;100.00;58370.81;4962267;28;20226;-71
2021/03/11 04:49:40;;;;;;;6.82;3.15;;;;;;;-142.13;100.00;58370.81;4951156;28;20476;-70
2021/03/11 04:52:08;;;;;;;5.53;3.28;;;;;;;-142.13;100.00;58370.81;4964925;28;20292;-70
2021/03/11 04:54:36;;;;;;;7.10;3.17;;;;;;;-142.13;100.00;58370.81;4975893;28;20206;-70
2021/03/11 04:57:03;;;;;;;5.82;3.03;;;;;;;-142.13;100.00;58370.81;4960586;28;20217;-70
2021/03/11 04:59:31;;;;;;;5.18;2.78;;;;;;;-142.13;100.00;58370.81;4969994;28;20229;-71
2021/03/11 05:02:00;;;;;;;8.13;3.08;;;;;;;-142.13;100.00;58370.81;4974727;28;20229;-71
2021/03/11 05:04:29;;;;;;;6.30;2.92;;;;;;;-142.13;100.00;58370.81;4983725;28;20792;-71
2021/03/11 05:06:56;;;;;;;4.17;2.33;;;;;;;-142.13;100.00;58370.81;4989027;28;20229;-70
2021/03/11 05:09:23;;;;;;;6.85;3.33;;;;;;;-142.13;100.00;58370.81;4976649;28;20448;-71
2021/03/11 05:11:49;;;;;;;5.95;2.50;;;;;;;-142.13;100.00;58370.81;4987148;28;20272;-70
2021/03/11 05:14:16;;;;;;;5.37;3.17;;;;;;;-142.13;100.00;58370.81;4983658;28;20701;-71
2021/03/11 05:16:43;;;;;;;5.90;3.25;;;;;;;-142.13;100.00;58370.81;4994597;28;20918;-70
2021/03/11 05:19:11;;;;;;;6.05;2.67;;;;;;;-142.13;100.00;58370.81;4983339;28;20567;-69
2021/03/11 05:21:38;;;;;;;8.30;2.80;;;;;;;-142.13;100.00;58370.81;4991791;28;20597;-70
2021/03/11 05:24:08;;;;;;;7.07;2.05;;;;;;;-142.13;100.00;58370.81;4994074;28;20189;-70
2021/03/11 05:26:35;;;;;;;9.38;3.08;;;;;;;-142.13;100.00;58370.81;4993985;28;20229;-70
2021/03/11 05:29:02;;;;;;;7.68;2.95;;;;;;;-142.13;100.00;58370.81;4994410;28;20633;-70
2021/03/11 05:31:29;;;;;;;2.50;1.70;;;;;;;-142.13;100.00;58370.81;4983195;28;20263;-71
2021/03/11 05:34:03;;;;;;;6.30;3.17;;;;;;;-142.13;100.00;58370.81;4966224;28;20194;-69
2021/03/11 05:36:30;;;;;;;7.25;3.47;;;;;;;-142.13;100.00;58370.81;4991672;28;20186;-70
2021/03/11 05:39:02;;;;;;;4.88;2.30;;;;;;;-142.13;100.00;58370.81;4980464;28;20185;-70
2021/03/11 05:41:30;;;;;;;3.78;2.45;;;;;;;-142.13;100.00;58370.81;4994664;28;20680;-70
2021/03/11 05:43:56;;;;;;;5.15;2.22;;;;;;;-142.13;100.00;58370.81;4994364;28;20521;-70
2021/03/11 05:46:24;;;;;;;4.38;2.53;;;;;;;-142.13;100.00;58370.81;4989454;28;20271;-70
2021/03/11 05:48:54;;;;;;;7.85;2.67;;;;;;;-142.13;100.00;58370.81;4984302;28;20696;-71
2021/03/11 05:51:21;;;;;;;1.98;1.15;;;;;;;-142.13;100.00;58370.81;4967222;28;20212;-71
2021/03/11 05:53:52;;;;;;;6.60;2.92;;;;;;;-142.13;100.00;58370.81;4980251;28;20303;-70
2021/03/11 05:56:20;;;;;;;4.75;2.40;;;;;;;-142.13;100.00;58370.81;4980568;28;20186;-70
2021/03/11 05:58:47;;;;;;;6.78;1.92;;;;;;;-142.13;100.00;58370.81;4989757;28;20240;-70
2021/03/11 06:01:16;;;;;;;7.15;2.70;;;;;;;-142.13;100.00;58370.81;4985123;28;20521;-70
2021/03/11 06:03:43;;;;;;;3.30;1.92;;;;;;;-142.13;100.00;58370.81;4979068;28;20244;-69
2021/03/11 06:06:10;;;;;;;3.45;1.92;;;;;;;-142.13;100.00;58370.81;4980156;28;20707;-69
2021/03/11 06:08:38;;;;;;;3.28;1.85;;;;;;;-142.13;100.00;58370.81;4979471;28;20360;-71
2021/03/11 06:11:05;;;;;;;3.00;1.70;;;;;;;-142.13;100.00;58370.81;4980707;28;20287;-70
2021/03/11 06:13:34;;;;;;;5.97;1.53;;;;;;;-142.13;100.00;58370.81;4988533;28;20317;-70
2021/03/11 06:16:03;;;;;;;2.53;1.50;;;;;;;-142.13;100.00;58370.81;4985235;28;20782;-71
2021/03/11 06:18:32;;;;;;;2.63;1.58;;;;;;;-142.13;100.00;58370.81;4981383;28;20469;-70
2021/03/11 06:21:00;;;;;;;5.88;1.75;;;;;;;-142.13;100.00;58370.81;4988195;28;20243;-70
2021/03/11 06:23:29;;;;;;;2.60;1.47;;;;;;;-142.13;100.00;58370.81;4984140;28;20230;-70
2021/03/11 06:25:57;;;;;;;6.20;1.35;;;;;;;-142.13;100.00;58370.81;4976462;28;20472;-70
2021/03/11 06:28:51;;;;;;;1.83;1.37;;;;;;;-142.13;100.00;58370.81;4982188;28;20657;-71
2021/03/11 06:31:20;;;;;;;3.87;1.53;;;;;;;-142.13;100.00;58370.81;4977362;28;20457;-70
2021/03/11 06:33:48;;;;;;;2.00;1.15;;;;;;;-142.13;100.00;58370.81;4984414;28;20522;-70
2021/03/11 06:36:16;;;;;;;6.43;2.03;;;;;;;-142.13;100.00;58370.81;4979846;28;20239;-69
2021/03/11 06:38:44;;;;;;;3.10;1.92;;;;;;;-142.13;100.00;58370.81;4985001;28;20221;-71
2021/03/11 06:41:11;;;;;;;2.30;1.40;;;;;;;-142.13;100.00;58370.81;4977923;28;20710;-70
2021/03/11 06:43:53;;;;;;;3.42;2.22;;;;;;;-142.13;100.00;58370.81;4983971;28;21188;-70
2021/03/11 06:46:21;;;;;;;5.67;2.13;;;;;;;-142.13;100.00;58370.81;4987727;28;20209;-71
2021/03/11 06:48:49;;;;;;;1.80;1.40;;;;;;;-142.13;100.00;58370.81;4987070;28;20867;-71
2021/03/11 06:51:18;;;;;;;3.47;2.20;;;;;;;-142.13;100.00;58370.81;4982157;28;20507;-70
2021/03/11 06:53:55;;;;;;;3.40;1.70;;;;;;;-142.13;100.00;58370.81;4980928;28;20476;-70
2021/03/11 06:56:23;;;;;;;1.67;1.27;;;;;;;-142.13;100.00;58370.81;4983158;28;20449;-71
2021/03/11 06:58:58;;;;;;;2.53;1.60;;;;;;;-142.13;100.00;58370.81;4990248;28;21058;-70
2021/03/11 07:01:27;;;;;;;5.40;2.40;;;;;;;-142.13;100.00;58370.81;4978820;28;20436;-70
2021/03/11 07:03:54;;;;;;;4.83;2.00;;;;;;;-142.13;100.00;58370.81;4970679;28;21018;-70
2021/03/11 07:06:29;;;;;;;3.93;1.50;;;;;;;-142.13;100.00;58370.81;4985751;28;20975;-72
2021/03/11 07:08:57;;;;;;;4.10;1.60;;;;;;;-142.13;100.00;58370.81;4981228;28;20790;-71
2021/03/11 07:11:31;;;;;;;3.40;1.93;;;;;;;-142.13;100.00;58370.81;4982013;28;20473;-71
2021/03/11 07:14:01;;;;;;;8.37;1.80;;;;;;;-142.13;100.00;58370.81;4980072;28;20945;-70
2021/03/11 07:16:33;;;;;;;1.90;1.40;;;;;;;-142.13;100.00;58370.81;4983182;28;20982;-70
2021/03/11 07:19:15;;;;;;;6.97;1.83;;;;;;;-142.13;100.00;58370.81;4984231;28;20458;-70
2021/03/11 07:21:44;;;;;;;2.70;1.73;;;;;;;-142.13;100.00;58370.81;4993166;28;20454;-71
2021/03/11 07:24:13;;;;;;;6.93;1.70;;;;;;;-142.13;100.00;58370.81;4987024;28;20436;-70
2021/03/11 07:26:58;;;;;;;7.00;1.70;;;;;;;-142.13;100.00;58370.81;4980098;28;20832;-71
2021/03/11 07:29:28;;;;;;;2.70;1.50;;;;;;;-142.13;100.00;58370.81;4986024;28;20448;-71
2021/03/11 07:31:56;;;;;;;3.40;1.70;;;;;;;-142.13;100.00;58370.81;4988939;28;20990;-72
2021/03/11 07:34:26;;;;;;;4.43;2.47;;;;;;;-142.13;100.00;58370.81;4983543;28;20200;-70
2021/03/11 07:36:57;;;;;;;2.20;1.40;;;;;;;-142.13;100.00;58370.81;4981965;28;20811;-70
2021/03/11 07:39:51;;;;;;;2.30;1.07;;;;;;;-142.13;100.00;58370.81;4995604;28;20442;-70
2021/03/11 07:42:23;;;;;;;3.20;1.13;;;;;;;-142.13;100.00;58370.81;4988047;28;21144;-70
2021/03/11 07:44:51;;;;;;;2.17;0.87;;;;;;;-142.13;100.00;58370.81;4986132;28;21339;-71
2021/03/11 07:47:21;;;;;;;1.60;1.20;;;;;;;-142.13;100.00;58370.81;4992710;28;20455;-70
2021/03/11 07:49:48;;;;;;;1.47;1.03;;;;;;;-142.13;100.00;58370.81;4991436;28;20809;-69
2021/03/11 07:52:15;;;;;;;2.60;1.17;;;;;;;-142.13;100.00;58370.81;4982149;28;21140;-71
2021/03/11 07:54:43;;;;;;;1.20;0.90;;;;;;;-142.13;100.00;58370.81;4973154;28;20938;-71
2021/03/11 07:57:09;;;;;;;1.97;1.17;;;;;;;-142.13;100.00;58370.81;4995268;28;20461;-70
2021/03/11 07:59:44;;;;;;;2.73;1.20;;;;;;;-142.13;100.00;58370.81;4997838;28;20435;-70
2021/03/11 08:02:16;;;;;;;1.40;0.80;;;;;;;-142.13;100.00;58370.81;4986461;28;20459;-70
2021/03/11 08:04:44;;;;;;;3.10;1.53;;;;;;;-142.13;100.00;58370.81;4972041;28;20829;-70
2021/03/11 08:07:17;;;;;;;3.20;1.50;;;;;;;-142.13;100.00;58370.81;4968550;28;20483;-70
2021/03/11 08:09:50;;;;;;;5.07;1.50;;;;;;;-142.13;100.00;58370.81;4992930;28;20906;-70
2021/03/11 08:12:36;;;;;;;2.17;1.40;;;;;;;-142.13;100.00;58370.81;4970666;28;20961;-70
2021/03/11 08:15:07;;;;;;;2.87;1.50;;;;;;;-142.13;100.00;58370.81;4980247;28;20762;-70
2021/03/11 08:18:02;;;;;;;1.73;0.90;;;;;;;-142.13;100.00;58370.81;4991291;28;20764;-70
2021/03/11 08:20:39;;;;;;;3.33;1.20;;;;;;;-142.13;100.00;58370.81;4980693;28;20799;-70
2021/03/11 08:23:07;;;;;;;1.93;0.93;;;;;;;-142.13;100.00;58370.81;4976021;28;20561;-70
2021/03/11 08:25:42;;;;;;;1.70;1.30;;;;;;;-142.13;100.00;58370.81;4996802;28;20827;-70
2021/03/11 08:28:38;;;;;;;1.97;1.30;;;;;;;-142.13;100.00;58370.81;4994086;28;20946;-70
2021/03/11 08:31:08;;;;;;;2.83;0.90;;;;;;;-142.13;100.00;58370.81;4984609;28;20447;-71
2021/03/11 08:33:53;;;;;;;2.97;1.10;;;;;;;-142.13;100.00;58370.81;4987251;28;20468;-70
2021/03/11 08:36:26;;;;;;;1.97;0.93;;;;;;;-142.13;100.00;58370.81;4986942;28;20440;-70
2021/03/11 08:38:53;;;;;;;1.80;1.10;;;;;;;-142.13;100.00;58370.81;4993744;28;20464;-70
2021/03/11 08:41:29;;;;;;;1.93;1.20;;;;;;;-142.13;100.00;58370.81;4997368;28;20909;-70
2021/03/11 08:43:56;;;;;;;1.20;1.03;;;;;;;-142.13;100.00;58370.81;4982127;28;20839;-70
2021/03/11 08:46:24;;;;;;;2.37;1.40;;;;;;;-142.13;100.00;58370.81;4970984;28;20499;-70
2021/03/11 08:48:54;;;;;;;1.93;1.47;;;;;;;-142.13;100.00;58370.81;4981084;28;20465;-70
2021/03/11 08:51:39;;;;;;;1.67;1.00;;;;;;;-142.13;100.00;58370.81;4990492;28;20451;-70
2021/03/11 08:54:21;;;;;;;1.10;0.70;;;;;;;-142.13;100.00;58370.81;4988804;28;20452;-70
2021/03/11 08:56:49;;;;;;;2.80;1.20;;;;;;;-142.13;100.00;58370.81;4986852;28;20903;-69
2021/03/11 08:59:17;;;;;;;2.00;1.10;;;;;;;-142.13;100.00;58370.81;4970297;28;20981;-70
2021/03/11 09:01:45;;;;;;;2.53;1.03;;;;;;;-142.13;100.00;58370.81;4986630;28;20448;-69
2021/03/11 09:04:37;;;;;;;1.70;1.10;;;;;;;-142.13;100.00;58370.81;4988529;28;20985;-69
2021/03/11 09:07:07;;;;;;;1.90;1.30;;;;;;;-142.13;100.00;58370.81;4977158;28;20966;-69
2021/03/11 09:09:36;;;;;;;2.17;1.33;;;;;;;-142.13;100.00;58370.81;4982512;28;20494;-70
2021/03/11 09:12:06;;;;;;;13.33;1.20;;;;;;;-142.13;100.00;58370.81;4987520;28;20862;-70
2021/03/11 09:14:34;;;;;;;2.13;1.37;;;;;;;-142.13;100.00;58370.81;4992401;28;20439;-70
2021/03/11 09:17:06;;;;;;;2.00;1.10;;;;;;;-142.13;100.00;58370.81;4983386;28;20990;-70
2021/03/11 09:19:43;;;;;;;1.63;0.83;;;;;;;-142.13;100.00;58370.81;4986303;28;20433;-69
2021/03/11 09:22:21;;;;;;;1.80;0.93;;;;;;;-142.13;100.00;58370.81;4966382;28;20464;-70
2021/03/11 09:25:10;;;;;;;4.23;1.00;;;;;;;-142.13;100.00;58370.81;4993752;28;20906;-69
2021/03/11 09:27:39;;;;;;;1.37;1.10;;;;;;;-142.13;100.00;58370.81;4985685;28;20487;-70
2021/03/11 09:30:22;;;;;;;2.03;1.40;;;;;;;-142.13;100.00;58370.81;4978233;28;20466;-69
2021/03/11 09:32:49;;;;;;;1.77;1.10;;;;;;;-142.13;100.00;58370.81;4974240;28;20946;-69
2021/03/11 09:35:18;;;;;;;4.30;0.90;;;;;;;-142.13;100.00;58370.81;4989099;28;20744;-70
2021/03/11 09:37:50;;;;;;;1.17;0.67;;;;;;;-142.13;100.00;58370.81;4991526;28;20522;-70
2021/03/11 09:40:21;;;;;;;3.97;0.90;;;;;;;-142.13;100.00;58370.81;4986925;28;20912;-69
2021/03/11 09:43:07;;;;;;;1.97;1.57;;;;;;;-142.13;100.00;58370.81;4968693;28;20847;-70
2021/03/11 09:45:36;;;;;;;4.60;0.70;;;;;;;-142.13;100.00;58370.81;4990313;28;20445;-70
2021/03/11 09:48:11;;;;;;;1.27;0.73;;;;;;;-142.13;100.00;58370.81;4992925;28;20503;-70
2021/03/11 09:50:48;;;;;;;1.10;0.73;;;;;;;-142.13;100.00;58370.81;4988149;28;20445;-71
2021/03/11 09:53:16;;;;;;;3.77;0.90;;;;;;;-142.13;100.00;58370.81;4989864;28;21013;-71
2021/03/11 09:55:43;;;;;;;1.40;0.90;;;;;;;-142.13;100.00;58370.81;4986297;28;20801;-70
2021/03/11 09:58:15;;;;;;;1.33;1.00;;;;;;;-142.13;100.00;58370.81;4986404;28;20939;-69
2021/03/11 10:00:44;;;;;;;5.03;0.80;;;;;;;-142.13;100.00;58370.81;4975867;28;20450;-69
2021/03/11 10:03:17;;;;;;;1.00;0.60;;;;;;;-142.13;100.00;58370.81;4988862;28;20493;-69
2021/03/11 10:05:46;;;;;;;1.50;0.73;;;;;;;-142.13;100.00;58370.81;4962183;28;20429;-69
2021/03/11 10:08:28;;;;;;;1.23;0.70;;;;;;;-142.13;100.00;58370.81;4989680;28;20615;-70
2021/03/11 10:11:04;;;;;;;1.57;0.70;;;;;;;-142.13;100.00;58370.81;4980163;28;20788;-69
2021/03/11 10:13:33;;;;;;;0.90;0.67;;;;;;;-142.13;100.00;58370.81;4984064;28;20841;-68
2021/03/11 10:16:00;;;;;;;1.67;0.90;;;;;;;-142.13;100.00;58370.81;4980576;28;20757;-72
2021/03/11 10:18:28;;;;;;;1.00;0.90;;;;;;;-142.13;100.00;58370.81;4971659;28;21135;-72
2021/03/11 10:21:05;;;;;;;2.70;0.97;;;;;;;-142.13;100.00;58370.81;4982511;28;20441;-72
2021/03/11 10:23:32;;;;;;;1.00;0.70;;;;;;;-142.13;100.00;58370.81;4978060;28;20567;-72
2021/03/11 10:26:18;;;;;;;1.00;0.70;;;;;;;-142.13;100.00;58370.81;4980143;28;20518;-72
2021/03/11 10:28:48;;;;;;;1.60;0.90;;;;;;;-142.13;100.00;58370.81;4983702;28;20448;-71
2021/03/11 10:31:15;;;;;;;3.90;0.77;;;;;;;-142.13;100.00;58370.81;4984713;28;20809;-70
2021/03/11 10:33:43;;;;;;;1.53;0.90;;;;;;;-142.13;100.00;58370.81;4986552;28;20840;-72
2021/03/11 10:36:19;;;;;;;2.73;0.90;;;;;;;-142.13;100.00;58370.81;4994176;28;20985;-72
2021/03/11 10:39:07;;;;;;;1.40;0.70;;;;;;;-142.13;100.00;58370.81;4988552;28;20980;-72
2021/03/11 10:41:35;;;;;;;3.13;1.50;;;;;;;-142.13;100.00;58370.81;4979419;28;20443;-71
2021/03/11 10:44:13;;;;;;;1.77;0.80;;;;;;;-142.13;100.00;58370.81;4983564;28;20813;-72
2021/03/11 10:46:42;;;;;;;1.17;0.80;;;;;;;-142.13;100.00;58370.81;4992142;28;20846;-71
2021/03/11 10:49:11;;;;;;;3.43;1.00;;;;;;;-142.13;100.00;58370.81;4979166;28;20444;-70
2021/03/11 10:51:39;;;;;;;3.93;1.43;;;;;;;-142.13;100.00;58370.81;4963654;28;20759;-70
2021/03/11 10:54:07;;;;;;;0.90;0.60;;;;;;;-142.13;100.00;58370.81;4986327;28;20446;-70
2021/03/11 10:56:33;;;;;;;0.97;0.63;;;;;;;-142.13;100.00;58370.81;4986023;28;20826;-70
2021/03/11 10:59:04;;;;;;;2.53;0.70;;;;;;;-142.13;100.00;58370.81;4984172;28;20449;-72
2021/03/11 11:01:31;;;;;;;6.00;0.80;;;;;;;-142.13;100.00;58370.81;4981409;28;20461;-72
2021/03/11 11:04:01;;;;;;;3.87;0.90;;;;;;;-142.13;100.00;58370.81;4975228;28;21035;-70
2021/03/11 11:06:30;;;;;;;0.97;0.60;;;;;;;-142.13;100.00;58370.81;4987600;28;21017;-70
2021/03/11 11:08:58;;;;;;;0.83;0.50;;;;;;;-142.13;100.00;58370.81;4985211;28;20871;-69
2021/03/11 11:11:26;;;;;;;4.30;0.60;;;;;;;-142.13;100.00;58370.81;4977994;28;20934;-70
2021/03/11 11:13:54;;;;;;;0.70;0.50;;;;;;;-142.13;100.00;58370.81;4979434;28;20855;-72
2021/03/11 11:16:21;;;;;;;0.90;0.60;;;;;;;-142.13;100.00;58370.81;4978947;28;21013;-71
2021/03/11 11:18:48;;;;;;;1.10;0.70;;;;;;;-142.13;100.00;58370.81;4965697;28;20500;-72
2021/03/11 11:21:16;;;;;;;0.90;0.50;;;;;;;-142.13;100.00;58370.81;4989569;28;20816;-69